Herlong, California
Current Conditions -  °F | °C
As of 1:15 PM on Tuesday 21 Oct 2014 (Local Time) from KRTS Reporting Station
Clear Clear  
Wind Chill: 55°   Ceiling: Unl
Heat Index: 55°   Visibility: 10mi
Dew Point: 23°   Wind: 6mph
Humidity: 28%   Direction: 300°WNW
Pressure: 30.09"   Gusts: NA
Location:  40.13°N, 120.15°W
Report Text: KRTS 212015Z AUTO 30005KT 10SM CLR 13/M05 A3009 RMK AO2
Loading
Personal Weather Stations






























Interactive Weather Map
Tropical Storm Tracking
New forecast layout! Learn more

10-Day Weather Forecast

Advertisements
Track Severe Weather on mobile